Port Augusta West, Australia
Current Conditions -  °F | °C
As of 6:02 PM on Friday 24 Oct 2014 (Local Time) from YWHA Reporting Station
Clear Clear  
Wind Chill: 81°   Ceiling: Unl
Heat Index: 81°   Visibility: 6mi
Dew Point: 48°   Wind: 18mph
Humidity: 32%   Direction: 190°S
Pressure: 29.83"   Gusts: 30mph
Location:  32.48°S, 137.76°E
Report Text: YWHA 240802Z AUTO 19016G26KT 9999 // NCD 27/09 Q1010
Loading
Personal Weather Stations






























Interactive Weather Map
Tropical Storm Tracking
New forecast layout! Learn more

10-Day Weather Forecast

Advertisements
Track Severe Weather on mobile